Time;durP1;ratioP1;P1;durP2;ratioP2;P2;SDS_P1;SDS_P2;PMS_P1;PMS_P2;Temp;Humidity;BMP_temperature;BMP_pressure;BME280_temperature;BME280_humidity;BME280_pressure;Samples;Min_cycle;Max_cycle;Signal;HPM_P1;HPM_P2
2023/08/16 00:01:36;;;;;;;2.03;1.00;;;;;;;17.43;73.60;101334.66;5029236;28;20053;-49
2023/08/16 00:04:03;;;;;;;2.03;1.25;;;;;;;17.40;73.89;101329.81;5024113;28;20041;-45
2023/08/16 00:06:30;;;;;;;2.60;1.15;;;;;;;17.38;73.93;101331.38;5030820;28;20076;-44
2023/08/16 00:08:58;;;;;;;3.40;1.20;;;;;;;17.33;74.08;101335.31;5028588;28;20048;-46
2023/08/16 00:11:27;;;;;;;4.05;1.15;;;;;;;17.30;73.88;101336.06;5028263;28;20045;-44
2023/08/16 00:13:54;;;;;;;2.38;0.93;;;;;;;17.25;74.26;101333.56;5028874;28;20049;-45
2023/08/16 00:16:21;;;;;;;4.88;1.20;;;;;;;17.21;74.51;101338.28;5030072;28;20068;-44
2023/08/16 00:18:48;;;;;;;4.57;1.08;;;;;;;17.17;74.58;101337.44;5028704;28;20575;-45
2023/08/16 00:21:15;;;;;;;2.80;1.05;;;;;;;17.18;74.89;101333.47;5027571;28;20515;-44
2023/08/16 00:23:42;;;;;;;2.78;1.38;;;;;;;17.18;74.78;101333.47;5030566;28;20045;-44
2023/08/16 00:26:08;;;;;;;2.40;0.82;;;;;;;17.16;74.83;101338.63;5033729;28;20407;-45
2023/08/16 00:28:35;;;;;;;3.65;1.60;;;;;;;17.14;74.90;101338.19;5032133;28;20045;-44
2023/08/16 00:31:02;;;;;;;3.10;1.10;;;;;;;17.12;74.92;101334.97;5030999;28;20050;-44
2023/08/16 00:33:29;;;;;;;1.05;0.90;;;;;;;17.12;75.07;101329.38;5031896;28;20037;-45
2023/08/16 00:35:56;;;;;;;2.42;1.10;;;;;;;17.10;75.06;101336.53;5031314;28;20045;-44
2023/08/16 00:38:23;;;;;;;4.40;1.35;;;;;;;17.03;75.19;101335.22;5033015;28;20403;-44
2023/08/16 00:40:50;;;;;;;1.92;1.00;;;;;;;17.00;75.31;101341.56;5032415;28;20049;-44
2023/08/16 00:43:18;;;;;;;1.30;0.90;;;;;;;16.97;75.24;101347.13;5033740;28;20095;-44
2023/08/16 00:45:47;;;;;;;9.20;1.55;;;;;;;16.92;75.53;101339.00;5021380;28;20053;-45
2023/08/16 00:48:14;;;;;;;4.80;1.30;;;;;;;16.88;75.76;101352.13;5034961;28;20136;-44
2023/08/16 00:50:41;;;;;;;2.45;1.10;;;;;;;16.85;76.05;101352.88;5032690;28;20053;-45
2023/08/16 00:53:09;;;;;;;1.90;1.30;;;;;;;16.82;76.25;101348.84;5032564;28;20053;-46
2023/08/16 00:55:37;;;;;;;3.45;1.35;;;;;;;16.83;76.14;101344.06;5032794;28;20431;-44
2023/08/16 00:58:04;;;;;;;4.00;1.15;;;;;;;16.85;76.32;101352.88;5024458;28;20072;-44
2023/08/16 01:00:32;;;;;;;3.20;1.40;;;;;;;16.85;76.49;101352.88;5032380;28;20050;-44
2023/08/16 01:02:59;;;;;;;1.52;0.85;;;;;;;16.84;76.52;101356.84;5033179;28;20057;-44
2023/08/16 01:05:26;;;;;;;3.30;1.40;;;;;;;16.81;76.70;101357.63;5033255;28;20052;-44
2023/08/16 01:07:53;;;;;;;2.72;1.10;;;;;;;16.77;76.75;101351.13;5033350;28;20141;-45
2023/08/16 01:10:30;;;;;;;3.55;1.55;;;;;;;16.72;76.83;101352.25;5032199;28;20119;-44
2023/08/16 01:13:07;;;;;;;2.42;1.23;;;;;;;16.66;77.04;101353.75;5030235;28;20076;-46
2023/08/16 01:15:38;;;;;;;2.30;1.33;;;;;;;16.65;77.22;101370.91;5031800;28;20095;-45
2023/08/16 01:18:06;;;;;;;1.55;0.90;;;;;;;16.62;77.38;101364.06;5032739;28;20045;-43
2023/08/16 01:20:36;;;;;;;1.83;0.98;;;;;;;16.61;77.57;101368.03;5029961;28;20081;-44
2023/08/16 01:23:12;;;;;;;0.80;0.80;;;;;;;16.59;77.56;101367.59;5029504;28;20050;-44
2023/08/16 01:26:07;;;;;;;1.13;1.00;;;;;;;16.60;77.75;101365.63;5027238;28;20041;-44
2023/08/16 01:28:36;;;;;;;1.10;0.80;;;;;;;16.57;77.68;101380.34;5021024;28;20487;-45
2023/08/16 01:31:04;;;;;;;1.63;0.73;;;;;;;16.56;77.81;101371.13;5026321;28;20045;-50
2023/08/16 01:33:32;;;;;;;1.60;1.08;;;;;;;16.54;77.87;101370.69;5030305;28;20398;-44
2023/08/16 01:35:59;;;;;;;0.85;0.63;;;;;;;16.51;77.95;101378.97;5030792;28;20067;-44
2023/08/16 01:38:26;;;;;;;1.70;0.80;;;;;;;16.50;78.14;101374.56;5029672;28;20073;-43
2023/08/16 01:40:56;;;;;;;1.67;1.00;;;;;;;16.49;78.25;101376.56;5030340;28;20046;-46
2023/08/16 01:43:23;;;;;;;2.85;1.00;;;;;;;16.45;78.29;101372.88;5031408;28;20046;-46
2023/08/16 01:45:51;;;;;;;2.75;0.95;;;;;;;16.42;78.26;101374.44;5032330;28;20571;-44
2023/08/16 01:48:21;;;;;;;2.33;0.90;;;;;;;16.38;78.33;101367.16;5032529;28;20696;-44
2023/08/16 01:50:48;;;;;;;1.30;0.75;;;;;;;16.35;78.46;101368.69;5031402;28;20038;-44
2023/08/16 01:53:15;;;;;;;4.20;1.20;;;;;;;16.32;78.59;101374.22;5032470;28;20049;-45
2023/08/16 01:55:42;;;;;;;2.85;0.95;;;;;;;16.28;78.83;101362.97;5032092;28;20406;-44
2023/08/16 01:58:09;;;;;;;1.42;0.95;;;;;;;16.26;78.78;101376.50;5032307;28;20078;-45
2023/08/16 02:00:36;;;;;;;2.08;0.80;;;;;;;16.20;79.05;101383.53;5031379;28;20041;-45
2023/08/16 02:03:03;;;;;;;2.97;1.00;;;;;;;16.17;79.18;101373.13;5031487;28;20061;-44
2023/08/16 02:05:30;;;;;;;1.52;0.70;;;;;;;16.15;79.19;101374.69;5031462;28;20052;-45
2023/08/16 02:07:57;;;;;;;4.00;1.15;;;;;;;16.12;79.09;101370.63;5027953;28;20423;-46
2023/08/16 02:10:24;;;;;;;1.92;0.90;;;;;;;16.11;79.19;101368.19;5031275;28;20095;-45
2023/08/16 02:12:50;;;;;;;2.05;1.27;;;;;;;16.08;79.30;101361.34;5030182;28;20443;-45
2023/08/16 02:15:17;;;;;;;1.85;1.30;;;;;;;16.04;79.33;101363.28;5029383;28;20377;-44
2023/08/16 02:17:44;;;;;;;2.53;1.45;;;;;;;16.02;79.44;101365.59;5030157;28;20426;-45
2023/08/16 02:20:12;;;;;;;1.67;1.10;;;;;;;16.00;79.56;101367.16;5018277;28;20096;-45
2023/08/16 02:22:42;;;;;;;2.80;0.90;;;;;;;15.98;79.51;101370.31;5030375;28;20045;-44
2023/08/16 02:25:11;;;;;;;3.22;1.20;;;;;;;15.96;79.71;101367.09;5030617;28;20050;-44
2023/08/16 02:27:39;;;;;;;0.90;0.90;;;;;;;15.93;79.71;101370.63;5027782;28;20045;-45
2023/08/16 02:30:06;;;;;;;4.68;1.00;;;;;;;15.90;79.72;101367.75;5029588;28;20071;-46
2023/08/16 02:32:33;;;;;;;2.45;1.08;;;;;;;15.88;79.91;101370.91;5029088;28;20048;-44
2023/08/16 02:35:01;;;;;;;3.45;1.25;;;;;;;15.86;79.86;101362.06;5029863;28;20500;-44
2023/08/16 02:37:29;;;;;;;3.30;1.00;;;;;;;15.84;79.82;101367.22;5028990;28;20045;-46
2023/08/16 02:39:56;;;;;;;3.03;1.10;;;;;;;15.82;79.82;101369.56;5028958;28;20098;-45
2023/08/16 02:42:24;;;;;;;4.95;1.42;;;;;;;15.77;79.84;101367.06;5027149;28;20053;-45
2023/08/16 02:44:51;;;;;;;2.33;0.90;;;;;;;15.71;79.96;101369.34;5024334;28;20065;-48
2023/08/16 02:47:18;;;;;;;2.25;1.08;;;;;;;15.68;80.04;101375.63;5026023;28;20030;-44
2023/08/16 02:49:44;;;;;;;4.63;1.40;;;;;;;15.64;80.18;101377.56;5030526;28;20099;-44
2023/08/16 02:52:12;;;;;;;2.88;0.93;;;;;;;15.62;80.36;101371.50;5029544;28;20045;-44
2023/08/16 02:54:40;;;;;;;3.63;1.00;;;;;;;15.60;80.40;101375.84;5025506;28;20045;-44
2023/08/16 02:57:07;;;;;;;4.00;1.52;;;;;;;15.57;80.34;101373.78;5029275;28;20064;-45
2023/08/16 02:59:41;;;;;;;2.33;0.90;;;;;;;15.53;80.50;101375.69;5029980;28;20057;-44
2023/08/16 03:02:08;;;;;;;2.45;1.10;;;;;;;15.51;80.44;101387.22;5677641;22;20065;-44
2023/08/16 03:04:39;;;;;;;2.85;1.13;;;;;;;15.47;80.60;101380.72;6023226;23;20478;-45
2023/08/16 03:07:11;;;;;;;4.55;1.23;;;;;;;15.41;80.66;101389.72;6046923;23;20390;-44
2023/08/16 03:09:39;;;;;;;3.97;1.30;;;;;;;15.37;80.69;101388.81;6036314;23;20550;-45
2023/08/16 03:12:06;;;;;;;1.30;1.20;;;;;;;15.35;80.93;101385.59;6049247;23;20063;-45
2023/08/16 03:14:33;;;;;;;4.20;1.20;;;;;;;15.33;80.74;101387.94;6035798;23;20513;-46
2023/08/16 03:17:00;;;;;;;3.67;1.25;;;;;;;15.30;80.85;101399.81;6043410;23;20033;-45
2023/08/16 03:19:27;;;;;;;2.03;1.52;;;;;;;15.25;81.00;101393.31;6036324;23;20461;-48
2023/08/16 03:21:56;;;;;;;2.55;0.95;;;;;;;15.23;81.01;101401.25;6018099;23;20095;-46
2023/08/16 03:24:22;;;;;;;2.03;1.10;;;;;;;15.20;81.13;101396.38;6032525;23;20039;-46
2023/08/16 03:26:50;;;;;;;3.15;1.10;;;;;;;15.20;80.97;101395.56;6021767;23;20112;-47
2023/08/16 03:29:18;;;;;;;4.93;1.35;;;;;;;15.20;81.11;101396.38;6031597;23;20100;-46
2023/08/16 03:31:46;;;;;;;1.58;1.02;;;;;;;15.16;81.19;101395.50;6033172;23;20056;-46
2023/08/16 03:34:13;;;;;;;5.03;1.80;;;;;;;15.13;81.07;101396.22;6031601;23;20025;-47
2023/08/16 03:36:40;;;;;;;1.55;1.25;;;;;;;15.11;81.13;101398.56;6031452;23;20041;-45
2023/08/16 03:39:07;;;;;;;3.35;2.13;;;;;;;15.06;81.24;101396.03;6031490;23;20529;-45
2023/08/16 03:41:34;;;;;;;5.10;1.35;;;;;;;15.03;81.49;101384.78;6033006;23;20033;-46
2023/08/16 03:44:01;;;;;;;4.00;1.33;;;;;;;15.00;81.72;101403.06;6031910;23;20021;-47
2023/08/16 03:46:28;;;;;;;2.92;1.30;;;;;;;15.01;81.65;101403.88;6033032;23;20032;-46
2023/08/16 03:48:55;;;;;;;3.25;1.50;;;;;;;15.01;81.70;101399.09;6032952;23;20025;-46
2023/08/16 03:51:22;;;;;;;2.92;1.67;;;;;;;15.01;81.86;101399.09;6038045;23;20024;-47
2023/08/16 03:53:49;;;;;;;4.25;1.48;;;;;;;15.04;81.81;101389.19;6038828;23;20039;-45
2023/08/16 03:56:16;;;;;;;11.48;3.40;;;;;;;15.02;81.76;101383.97;6039969;23;20032;-47
2023/08/16 03:58:43;;;;;;;2.80;1.60;;;;;;;15.02;82.00;101389.56;6047687;23;20059;-46
2023/08/16 04:01:11;;;;;;;2.15;1.35;;;;;;;15.03;81.96;101387.59;6044085;23;20040;-47
2023/08/16 04:03:38;;;;;;;5.43;1.42;;;;;;;15.05;82.03;101383.25;6037408;23;20037;-48
2023/08/16 04:06:11;;;;;;;5.30;1.45;;;;;;;15.07;82.17;101392.06;6028912;23;20462;-46
2023/08/16 04:08:38;;;;;;;7.63;2.00;;;;;;;15.10;82.13;101380.19;6046340;23;20033;-46
2023/08/16 04:11:05;;;;;;;8.25;2.35;;;;;;;15.13;82.24;101375.88;6039251;23;20033;-46
2023/08/16 04:13:33;;;;;;;1.23;1.17;;;;;;;15.16;82.50;101389.94;6045002;23;20055;-46
2023/08/16 04:16:00;;;;;;;2.78;1.38;;;;;;;15.17;82.69;101391.53;6032796;23;20029;-50
2023/08/16 04:18:27;;;;;;;2.67;1.50;;;;;;;15.22;82.52;101391.25;6036880;23;20037;-46
2023/08/16 04:20:54;;;;;;;1.67;1.58;;;;;;;15.29;82.31;101401.78;6026089;23;20414;-46
2023/08/16 04:23:22;;;;;;;2.40;1.45;;;;;;;15.32;82.40;101405.84;6028200;23;20514;-46
2023/08/16 04:25:53;;;;;;;3.38;1.50;;;;;;;15.35;82.42;101400.34;6029728;23;20061;-46
2023/08/16 04:28:20;;;;;;;3.95;1.55;;;;;;;15.34;82.17;101403.50;6029529;23;20029;-45
2023/08/16 04:30:47;;;;;;;2.35;1.58;;;;;;;15.36;82.34;101398.34;6041115;23;20024;-47
2023/08/16 04:33:13;;;;;;;2.95;1.85;;;;;;;15.37;82.44;101411.94;6033476;23;20386;-46
2023/08/16 04:35:40;;;;;;;4.70;1.73;;;;;;;15.38;82.43;101407.19;6055099;23;20036;-45
2023/08/16 04:38:07;;;;;;;6.03;1.85;;;;;;;15.39;82.50;101408.78;6033339;23;20033;-46
2023/08/16 04:40:34;;;;;;;2.60;1.52;;;;;;;15.37;82.73;101413.94;6029592;23;20536;-46
2023/08/16 04:43:01;;;;;;;3.95;1.60;;;;;;;15.37;83.02;101423.13;6026837;23;20368;-46
2023/08/16 04:45:28;;;;;;;4.15;2.58;;;;;;;15.35;82.98;101416.28;6023692;23;20032;-46
2023/08/16 04:47:55;;;;;;;3.90;2.28;;;;;;;15.35;83.16;101419.06;6035878;23;20403;-45
2023/08/16 04:50:22;;;;;;;4.60;2.17;;;;;;;15.34;83.36;101417.44;6032267;23;20382;-46
2023/08/16 04:52:48;;;;;;;5.53;2.78;;;;;;;15.37;83.38;101408.34;6033067;23;20040;-45
2023/08/16 04:55:16;;;;;;;9.23;2.88;;;;;;;15.35;83.45;101407.91;6033852;23;20402;-48
2023/08/16 04:57:43;;;;;;;5.45;2.25;;;;;;;15.37;83.49;101419.50;6034529;23;20033;-46
2023/08/16 05:00:10;;;;;;;4.30;2.22;;;;;;;15.37;83.50;101416.72;6033700;23;20090;-46
2023/08/16 05:02:37;;;;;;;6.97;2.80;;;;;;;15.38;83.70;101418.34;6030730;23;20112;-46
2023/08/16 05:05:05;;;;;;;3.80;2.42;;;;;;;15.37;83.75;101422.31;6033590;23;20029;-46
2023/08/16 05:07:32;;;;;;;7.85;2.67;;;;;;;15.37;83.87;101422.31;6033297;23;20457;-48
2023/08/16 05:09:59;;;;;;;4.88;1.90;;;;;;;15.38;83.86;101421.13;6033772;23;20063;-46
2023/08/16 05:12:26;;;;;;;5.47;2.38;;;;;;;15.38;83.95;101426.72;6056094;23;20033;-49
2023/08/16 05:14:55;;;;;;;4.20;2.40;;;;;;;15.38;84.13;101429.50;6032607;23;20068;-48
2023/08/16 05:17:22;;;;;;;5.22;2.80;;;;;;;15.39;84.12;101422.75;6033841;23;20058;-46
2023/08/16 05:19:50;;;;;;;6.72;3.55;;;;;;;15.42;84.13;101431.22;6030599;23;20083;-47
2023/08/16 05:22:16;;;;;;;7.03;2.63;;;;;;;15.46;84.20;101425.75;6033565;23;20489;-46
2023/08/16 05:24:43;;;;;;;6.25;3.13;;;;;;;15.50;84.15;101433.03;6032748;23;20033;-46
2023/08/16 05:27:12;;;;;;;6.38;3.53;;;;;;;15.51;84.15;101433.84;6033553;23;20110;-46
2023/08/16 05:29:40;;;;;;;7.70;2.63;;;;;;;15.52;84.09;101435.44;6034202;23;20033;-49
2023/08/16 05:32:07;;;;;;;5.15;2.22;;;;;;;15.52;84.30;101439.06;6033915;23;20032;-46
2023/08/16 05:34:34;;;;;;;5.03;2.92;;;;;;;15.53;84.36;101445.47;6031295;23;20025;-48
2023/08/16 05:37:05;;;;;;;3.17;2.45;;;;;;;15.53;84.29;101443.47;6030888;23;20034;-48
2023/08/16 05:39:32;;;;;;;5.32;2.58;;;;;;;15.54;84.43;101449.88;6011765;23;20040;-46
2023/08/16 05:41:59;;;;;;;6.05;2.38;;;;;;;15.55;84.47;101443.09;6019553;23;20034;-48
2023/08/16 05:44:26;;;;;;;6.95;3.28;;;;;;;15.59;84.40;101455.19;6029880;23;20041;-45
2023/08/16 05:46:53;;;;;;;4.63;2.78;;;;;;;15.59;84.44;101457.97;6033512;23;20037;-48
2023/08/16 05:49:20;;;;;;;6.00;2.70;;;;;;;15.60;84.57;101448.41;6043956;23;20033;-47
2023/08/16 05:51:47;;;;;;;4.32;2.65;;;;;;;15.61;84.72;101450.03;6028735;23;20045;-48
2023/08/16 05:54:13;;;;;;;4.43;2.40;;;;;;;15.60;84.54;101449.22;6027948;23;20171;-50
2023/08/16 05:56:41;;;;;;;5.68;3.13;;;;;;;15.63;84.80;101453.28;6032889;23;20040;-47
2023/08/16 05:59:08;;;;;;;4.78;2.60;;;;;;;15.63;84.72;101451.28;6026988;23;20393;-48
2023/08/16 06:01:35;;;;;;;7.80;2.40;;;;;;;15.66;84.99;101466.50;6055892;23;20064;-53
2023/08/16 06:04:02;;;;;;;4.53;2.78;;;;;;;15.68;85.05;101453.00;6030389;23;20025;-52
2023/08/16 06:06:29;;;;;;;6.50;2.58;;;;;;;15.69;85.10;101458.22;6055735;23;20033;-54
2023/08/16 06:08:56;;;;;;;2.25;2.05;;;;;;;15.73;85.23;101456.31;6036826;23;21209;-48
2023/08/16 06:11:23;;;;;;;2.88;2.53;;;;;;;15.74;85.40;101459.94;6031082;23;20036;-54
2023/08/16 06:13:50;;;;;;;2.30;2.10;;;;;;;15.74;85.32;101451.56;6028615;23;20047;-51
2023/08/16 06:16:17;;;;;;;5.63;2.67;;;;;;;15.77;85.48;101456.41;6030491;23;20633;-55
2023/08/16 06:18:45;;;;;;;5.75;2.58;;;;;;;15.78;85.36;101460.81;6032411;23;20029;-53
2023/08/16 06:21:11;;;;;;;3.58;2.53;;;;;;;15.78;85.66;101458.00;6050680;23;20083;-48
2023/08/16 06:23:39;;;;;;;4.10;2.65;;;;;;;15.74;85.85;101457.13;6043659;23;20077;-51
2023/08/16 06:26:06;;;;;;;4.38;2.83;;;;;;;15.77;85.87;101465.59;6027338;23;20056;-48
2023/08/16 06:28:33;;;;;;;5.63;3.03;;;;;;;15.82;86.14;101467.31;6019692;23;20665;-48
2023/08/16 06:31:00;;;;;;;6.82;2.92;;;;;;;15.87;86.21;101467.00;6037305;23;20025;-49
2023/08/16 06:33:30;;;;;;;6.28;2.67;;;;;;;15.90;86.29;101469.09;6035230;23;20114;-52
2023/08/16 06:35:59;;;;;;;3.17;2.33;;;;;;;15.93;86.42;101471.16;6031779;23;20504;-51
2023/08/16 06:38:26;;;;;;;5.03;2.60;;;;;;;15.96;86.39;101476.03;6043029;23;20040;-51
2023/08/16 06:40:53;;;;;;;3.63;2.58;;;;;;;16.01;86.63;101469.34;6041947;23;20484;-54
2023/08/16 06:43:20;;;;;;;6.65;2.45;;;;;;;16.03;86.73;101472.56;6046325;23;20064;-51
2023/08/16 06:45:47;;;;;;;4.93;2.97;;;;;;;16.06;86.82;101469.84;6025328;23;20041;-53
2023/08/16 06:48:14;;;;;;;5.03;2.47;;;;;;;16.11;86.87;101469.56;6031609;23;20025;-50
2023/08/16 06:50:41;;;;;;;4.18;2.00;;;;;;;16.15;87.07;101481.63;6036151;23;20107;-51
2023/08/16 06:53:08;;;;;;;7.35;2.83;;;;;;;16.18;86.88;101480.06;6045700;23;20036;-49
2023/08/16 06:55:38;;;;;;;4.28;2.65;;;;;;;16.17;87.05;101487.69;6030671;23;20060;-54
2023/08/16 06:58:06;;;;;;;3.53;2.45;;;;;;;16.18;87.19;101472.50;6041809;23;20044;-51
2023/08/16 07:00:34;;;;;;;3.60;2.38;;;;;;;16.17;87.24;101490.47;6048356;23;20064;-50
2023/08/16 07:03:02;;;;;;;6.85;2.50;;;;;;;16.17;87.35;101484.06;6034070;23;20087;-48
2023/08/16 07:05:29;;;;;;;6.47;2.63;;;;;;;16.20;87.53;101486.91;6043935;23;20033;-49
2023/08/16 07:07:57;;;;;;;5.55;2.88;;;;;;;16.22;87.70;101487.38;6030251;23;20064;-52
2023/08/16 07:10:23;;;;;;;3.50;2.70;;;;;;;16.22;87.64;101480.97;6037715;23;20435;-50
2023/08/16 07:12:50;;;;;;;3.50;2.17;;;;;;;16.20;87.69;101484.13;6031903;23;20028;-49
2023/08/16 07:15:17;;;;;;;5.05;2.55;;;;;;;16.19;87.78;101487.28;6035080;23;20084;-51
2023/08/16 07:17:44;;;;;;;5.28;2.63;;;;;;;16.20;87.95;101488.94;6031707;23;20040;-48
2023/08/16 07:20:11;;;;;;;5.35;2.67;;;;;;;16.22;87.89;101486.56;6036577;23;20116;-50
2023/08/16 07:22:38;;;;;;;5.75;3.13;;;;;;;16.21;88.07;101491.34;6037235;23;20033;-49
2023/08/16 07:25:07;;;;;;;5.15;3.13;;;;;;;16.21;88.25;101479.34;6050269;23;20032;-48
2023/08/16 07:27:34;;;;;;;4.63;3.42;;;;;;;16.28;88.22;101487.91;6025462;23;20055;-50
2023/08/16 07:30:01;;;;;;;4.28;2.85;;;;;;;16.32;88.25;101492.41;6031322;23;20029;-49
2023/08/16 07:32:28;;;;;;;5.35;3.15;;;;;;;16.35;88.33;101490.84;6044184;23;20043;-51
2023/08/16 07:34:55;;;;;;;6.90;3.53;;;;;;;16.38;88.32;101496.53;6052176;23;20493;-48
2023/08/16 07:37:23;;;;;;;6.13;3.08;;;;;;;16.45;88.38;101499.47;6034971;23;20471;-50
2023/08/16 07:39:49;;;;;;;6.10;3.00;;;;;;;16.53;88.41;101499.63;6036310;23;20475;-49
2023/08/16 07:42:18;;;;;;;5.50;3.42;;;;;;;16.56;88.40;101499.72;6031061;23;20491;-51
2023/08/16 07:44:45;;;;;;;4.88;3.35;;;;;;;16.60;88.52;101497.00;6043136;23;20033;-51
2023/08/16 07:47:14;;;;;;;7.72;2.97;;;;;;;16.63;88.30;101499.88;6034939;23;20628;-50
2023/08/16 07:49:41;;;;;;;10.88;3.10;;;;;;;16.70;88.37;101497.22;6032447;23;20378;-49
2023/08/16 07:52:08;;;;;;;5.00;2.97;;;;;;;16.78;88.47;101509.38;6047819;23;20459;-52
2023/08/16 07:54:35;;;;;;;5.88;2.83;;;;;;;16.83;88.38;101511.88;6031431;23;20029;-52
2023/08/16 07:57:02;;;;;;;4.57;2.63;;;;;;;16.86;88.32;101511.13;6037973;23;20399;-51
2023/08/16 07:59:29;;;;;;;3.67;2.92;;;;;;;16.91;88.32;101517.25;6040300;23;20084;-51
2023/08/16 08:01:56;;;;;;;6.13;2.70;;;;;;;16.91;88.20;101511.66;6051333;23;20431;-52
2023/08/16 08:04:23;;;;;;;8.30;3.45;;;;;;;16.90;88.22;101515.59;6037421;23;20033;-49
2023/08/16 08:06:50;;;;;;;6.75;3.17;;;;;;;16.89;88.23;101513.19;6030503;23;20120;-51
2023/08/16 08:09:17;;;;;;;2.45;2.22;;;;;;;16.92;88.35;101513.25;6037575;23;20056;-51
2023/08/16 08:11:44;;;;;;;3.42;2.10;;;;;;;16.96;88.33;101513.31;6038369;23;20056;-52
2023/08/16 08:14:12;;;;;;;2.92;2.10;;;;;;;17.03;88.25;101502.25;6054655;23;20033;-52
2023/08/16 08:16:39;;;;;;;3.63;2.45;;;;;;;17.09;88.31;101511.16;6035221;23;20104;-52
2023/08/16 08:19:06;;;;;;;4.78;2.67;;;;;;;17.10;87.93;101518.38;6036706;23;20056;-48
2023/08/16 08:21:33;;;;;;;5.03;2.22;;;;;;;17.13;87.99;101507.25;6038904;23;20039;-54
2023/08/16 08:24:00;;;;;;;5.15;2.80;;;;;;;17.20;87.91;101507.41;6041560;23;20065;-52
2023/08/16 08:26:27;;;;;;;4.45;2.72;;;;;;;17.29;88.01;101507.94;6023188;23;20071;-51
2023/08/16 08:28:54;;;;;;;6.20;3.17;;;;;;;17.29;87.76;101507.94;6043504;23;20483;-52
2023/08/16 08:31:21;;;;;;;5.35;2.75;;;;;;;17.34;87.84;101515.25;6031005;23;20560;-52
2023/08/16 08:33:49;;;;;;;3.17;2.25;;;;;;;17.41;87.96;101509.75;6046132;23;20032;-53
2023/08/16 08:36:16;;;;;;;5.32;2.58;;;;;;;17.49;87.67;101517.13;6034424;23;20041;-52
2023/08/16 08:38:43;;;;;;;4.68;2.92;;;;;;;17.53;87.50;101506.81;6048774;23;20029;-48
2023/08/16 08:41:10;;;;;;;14.48;5.28;;;;;;;17.56;87.56;101520.88;6039981;23;20040;-50
2023/08/16 08:43:37;;;;;;;3.10;2.80;;;;;;;17.60;87.68;101504.97;6033719;23;20032;-50
2023/08/16 08:46:24;;;;;;;3.70;3.38;;;;;;;17.70;87.37;101511.09;6033740;23;20029;-52
2023/08/16 08:48:51;;;;;;;6.45;3.20;;;;;;;17.80;87.18;101504.84;6042771;23;20036;-50
2023/08/16 08:51:18;;;;;;;4.68;2.88;;;;;;;17.90;87.25;101509.81;6034397;23;20032;-53
2023/08/16 08:53:45;;;;;;;7.97;2.78;;;;;;;17.96;87.03;101517.53;6033610;23;20033;-51
2023/08/16 08:56:16;;;;;;;3.95;2.25;;;;;;;18.05;86.95;101517.28;6045388;23;20106;-48
2023/08/16 08:58:45;;;;;;;5.82;2.97;;;;;;;18.16;86.64;101518.25;6045886;23;20479;-52
2023/08/16 09:01:14;;;;;;;2.95;2.03;;;;;;;18.25;86.41;101522.38;6030045;23;20067;-52
2023/08/16 09:03:44;;;;;;;4.07;2.15;;;;;;;18.34;86.43;101513.69;6033700;23;20063;-49
2023/08/16 09:06:12;;;;;;;2.03;1.77;;;;;;;18.41;86.02;101516.59;6047116;23;20075;-50
2023/08/16 09:08:41;;;;;;;6.70;1.88;;;;;;;18.45;85.74;101519.44;6044713;23;21206;-49
2023/08/16 09:11:08;;;;;;;2.85;2.20;;;;;;;18.55;85.61;101518.81;6047881;23;20052;-53
2023/08/16 09:13:36;;;;;;;2.55;1.23;;;;;;;18.62;85.31;101519.72;6038960;23;20120;-51
2023/08/16 09:16:03;;;;;;;4.70;1.77;;;;;;;18.63;84.80;101515.72;6045367;23;20033;-54
2023/08/16 09:18:30;;;;;;;4.60;1.95;;;;;;;18.56;84.33;101521.22;6041181;23;20364;-47
2023/08/16 09:20:59;;;;;;;4.90;1.90;;;;;;;18.56;84.47;101529.63;6038671;23;21700;-51
2023/08/16 09:23:32;;;;;;;2.38;1.48;;;;;;;18.58;84.34;101523.66;6035141;23;20111;-48
2023/08/16 09:25:59;;;;;;;3.85;1.13;;;;;;;18.63;84.12;101528.94;6045818;23;20115;-50
2023/08/16 09:28:30;;;;;;;2.30;0.98;;;;;;;18.61;83.65;101518.06;6039303;23;20036;-49
2023/08/16 09:31:04;;;;;;;1.88;0.70;;;;;;;18.68;83.50;101521.00;6031181;23;20037;-52
2023/08/16 09:33:34;;;;;;;1.73;0.70;;;;;;;18.77;82.93;101521.50;6039733;23;20037;-51
2023/08/16 09:36:03;;;;;;;0.73;0.73;;;;;;;18.81;82.80;101527.97;6034866;23;20025;-50
2023/08/16 09:38:31;;;;;;;2.10;0.80;;;;;;;18.82;82.39;101525.97;6041290;23;20059;-47
2023/08/16 09:41:01;;;;;;;1.65;1.23;;;;;;;18.82;82.41;101531.59;6034296;23;20741;-49
2023/08/16 09:43:33;;;;;;;2.28;1.00;;;;;;;18.84;81.94;101527.22;6033698;23;20120;-47
2023/08/16 09:46:03;;;;;;;1.50;0.85;;;;;;;18.87;81.72;101536.03;6033232;23;20377;-49
2023/08/16 09:48:30;;;;;;;2.75;0.75;;;;;;;18.90;81.08;101540.91;6032863;23;20733;-49
2023/08/16 09:51:03;;;;;;;0.82;0.80;;;;;;;18.89;80.97;101534.47;6034891;23;20431;-49
2023/08/16 09:53:33;;;;;;;1.83;0.60;;;;;;;18.93;80.99;101540.13;6015478;23;20029;-49
2023/08/16 09:56:05;;;;;;;2.83;0.65;;;;;;;18.95;80.77;101538.56;6020936;23;20029;-47
2023/08/16 09:58:35;;;;;;;1.83;1.00;;;;;;;18.98;80.69;101540.59;6038927;23;20028;-47
2023/08/16 10:01:02;;;;;;;1.77;0.80;;;;;;;19.02;80.42;101543.44;6050285;23;20494;-50
2023/08/16 10:03:55;;;;;;;2.17;0.43;;;;;;;19.03;80.16;101545.88;6022397;23;20033;-52
2023/08/16 10:06:26;;;;;;;0.98;0.63;;;;;;;19.01;79.67;101547.44;6032498;23;20100;-49
2023/08/16 10:08:56;;;;;;;6.07;1.65;;;;;;;18.99;79.48;101549.81;6017867;23;20038;-49
2023/08/16 10:11:24;;;;;;;2.70;0.68;;;;;;;18.99;79.34;101547.00;6030075;23;20083;-50
2023/08/16 10:13:52;;;;;;;1.77;0.68;;;;;;;19.03;79.61;101550.69;6035118;23;20069;-49
2023/08/16 10:16:21;;;;;;;1.25;1.10;;;;;;;19.19;79.06;101540.03;6043565;23;20056;-47
2023/08/16 10:18:50;;;;;;;2.25;1.02;;;;;;;19.39;78.47;101547.09;6050510;23;20034;-50
2023/08/16 10:21:18;;;;;;;2.80;0.90;;;;;;;19.61;78.31;101534.88;6019499;23;20033;-50
2023/08/16 10:23:47;;;;;;;1.88;1.27;;;;;;;19.75;77.30;101537.78;6028750;23;20029;-47
2023/08/16 10:26:15;;;;;;;2.72;0.57;;;;;;;19.87;77.17;101537.50;6032135;23;20100;-51
2023/08/16 10:28:50;;;;;;;1.17;0.45;;;;;;;20.07;76.52;101537.25;6033542;23;20072;-50
2023/08/16 10:31:25;;;;;;;1.52;0.68;;;;;;;20.10;75.79;101536.44;6045844;23;20041;-51
2023/08/16 10:33:55;;;;;;;3.17;0.90;;;;;;;19.97;75.46;101533.97;6035930;23;20036;-48
2023/08/16 10:36:23;;;;;;;2.10;0.93;;;;;;;19.90;75.37;101528.31;6033207;23;20028;-49
2023/08/16 10:38:57;;;;;;;1.02;0.40;;;;;;;19.86;75.43;101541.50;6048113;23;20028;-52
2023/08/16 10:41:25;;;;;;;0.60;0.60;;;;;;;19.87;74.89;101533.88;6018590;23;20091;-47
2023/08/16 10:43:54;;;;;;;2.08;0.40;;;;;;;19.90;74.82;101527.50;6036514;23;20028;-48
2023/08/16 10:46:33;;;;;;;3.60;0.60;;;;;;;19.98;75.15;101532.78;6032258;23;20072;-50
2023/08/16 10:49:06;;;;;;;1.63;0.50;;;;;;;20.01;74.57;101534.78;6034705;23;20025;-49
2023/08/16 10:51:47;;;;;;;2.88;0.90;;;;;;;20.02;74.57;101535.59;6047309;23;20025;-51
2023/08/16 10:54:15;;;;;;;1.67;0.60;;;;;;;20.09;74.22;101541.28;6051259;23;20029;-52
2023/08/16 10:56:49;;;;;;;0.73;0.68;;;;;;;20.17;73.87;101536.53;6025725;23;20021;-49
2023/08/16 10:59:17;;;;;;;1.40;0.52;;;;;;;20.18;74.00;101547.38;6044744;23;20080;-48
2023/08/16 11:01:49;;;;;;;1.50;0.60;;;;;;;20.12;73.39;101543.28;6025408;23;20422;-48
2023/08/16 11:04:16;;;;;;;1.02;0.80;;;;;;;20.11;73.87;101538.88;6029182;23;20035;-49
2023/08/16 11:06:43;;;;;;;2.25;0.70;;;;;;;20.14;73.64;101542.94;6029368;23;20129;-50
2023/08/16 11:09:28;;;;;;;;;;;;;;;20.15;73.73;101539.72;6019316;23;20037;-47
2023/08/16 11:12:00;;;;;;;2.65;1.20;;;;;;;20.18;73.40;101547.38;6034382;23;20319;-49
2023/08/16 11:14:27;;;;;;;3.70;1.08;;;;;;;20.19;73.52;101549.00;6039009;23;20025;-49
2023/08/16 11:16:55;;;;;;;4.53;1.20;;;;;;;20.23;73.43;101547.00;6039204;23;20045;-50
2023/08/16 11:19:22;;;;;;;2.45;0.80;;;;;;;20.22;73.16;101550.22;6033131;23;20036;-47
2023/08/16 11:21:51;;;;;;;3.00;0.68;;;;;;;20.11;72.89;101552.13;6005968;23;20024;-48
2023/08/16 11:24:18;;;;;;;0.70;0.60;;;;;;;20.04;73.16;101556.50;6039366;23;20440;-48
2023/08/16 11:26:45;;;;;;;4.20;0.90;;;;;;;19.97;73.33;101556.47;6038562;23;20479;-51
2023/08/16 11:29:13;;;;;;;1.58;0.75;;;;;;;19.96;72.99;101552.00;6035325;23;20116;-47